createdAt,value
2017-12-02T00:01:38.471Z,43.53
2017-12-02T00:04:05.892Z,47.10
2017-12-02T00:06:33.335Z,51.80
2017-12-02T00:09:00.732Z,58.60
2017-12-02T00:11:28.122Z,51.10
2017-12-02T00:13:55.526Z,45.70
2017-12-02T00:16:22.923Z,49.63
2017-12-02T00:18:50.322Z,61.73
2017-12-02T00:21:17.767Z,57.83
2017-12-02T00:23:45.163Z,49.57
2017-12-02T00:26:12.666Z,61.00
2017-12-02T00:28:40.054Z,51.67
2017-12-02T00:31:07.448Z,45.80
2017-12-02T00:33:34.863Z,51.57
2017-12-02T00:36:02.294Z,47.27
2017-12-02T00:38:29.755Z,44.70
2017-12-02T00:40:57.201Z,47.77
2017-12-02T00:43:24.593Z,44.80
2017-12-02T00:45:52.022Z,53.90
2017-12-02T00:48:19.405Z,50.70
2017-12-02T00:50:46.811Z,48.20
2017-12-02T00:53:14.301Z,48.87
2017-12-02T00:55:41.699Z,53.07
2017-12-02T00:58:09.223Z,52.13
2017-12-02T01:00:36.623Z,48.50
2017-12-02T01:03:04.025Z,48.13
2017-12-02T01:05:31.414Z,51.97
2017-12-02T01:07:58.815Z,47.87
2017-12-02T01:10:26.210Z,49.20
2017-12-02T01:12:53.630Z,48.97
2017-12-02T01:15:21.019Z,46.87
2017-12-02T01:17:48.423Z,51.13
2017-12-02T01:20:15.810Z,44.60
2017-12-02T01:22:43.298Z,48.33
2017-12-02T01:25:10.690Z,45.77
2017-12-02T01:27:38.110Z,46.73
2017-12-02T01:30:05.502Z,43.53
2017-12-02T01:32:32.903Z,47.33
2017-12-02T01:35:00.378Z,48.00
2017-12-02T01:37:27.839Z,41.30
2017-12-02T01:39:55.287Z,43.13
2017-12-02T01:42:22.678Z,39.87
2017-12-02T01:44:50.099Z,48.17
2017-12-02T01:47:17.499Z,43.33
2017-12-02T01:49:44.898Z,36.50
2017-12-02T01:52:12.362Z,36.63
2017-12-02T01:54:39.750Z,37.53
2017-12-02T01:57:07.194Z,33.20
2017-12-02T01:59:34.632Z,40.53
2017-12-02T02:02:02.043Z,40.63
2017-12-02T02:04:29.542Z,42.20
2017-12-02T02:06:56.971Z,43.73
2017-12-02T02:09:24.370Z,47.37
2017-12-02T02:11:51.779Z,47.03
2017-12-02T02:14:19.267Z,42.27
2017-12-02T02:16:46.720Z,32.13
2017-12-02T02:19:14.128Z,37.43
2017-12-02T02:21:41.532Z,34.70
2017-12-02T02:24:08.990Z,33.87
2017-12-02T02:26:36.389Z,39.40
2017-12-02T02:29:03.801Z,40.40
2017-12-02T02:31:31.251Z,33.07
2017-12-02T02:33:58.727Z,40.33
2017-12-02T02:36:26.098Z,31.77
2017-12-02T02:38:59.358Z,33.20
2017-12-02T02:41:26.742Z,35.43
2017-12-02T02:43:54.169Z,35.77
2017-12-02T02:46:21.552Z,35.50
2017-12-02T02:48:48.966Z,32.80
2017-12-02T02:51:16.354Z,36.57
2017-12-02T02:53:43.759Z,35.30
2017-12-02T02:56:11.143Z,34.70
2017-12-02T02:58:38.590Z,37.47
2017-12-02T03:01:06.057Z,38.33
2017-12-02T03:03:33.454Z,31.87
2017-12-02T03:06:00.842Z,32.77
2017-12-02T03:08:28.318Z,33.43
2017-12-02T03:10:55.790Z,38.37
2017-12-02T03:13:23.231Z,37.27
2017-12-02T03:15:50.631Z,44.30
2017-12-02T03:18:18.053Z,36.23
2017-12-02T03:20:45.493Z,39.00
2017-12-02T03:23:12.882Z,37.73
2017-12-02T03:25:40.290Z,42.03
2017-12-02T03:28:08.487Z,45.83
2017-12-02T03:30:35.883Z,43.20
2017-12-02T03:33:03.270Z,50.33
2017-12-02T03:35:30.770Z,44.60
2017-12-02T03:37:58.164Z,42.17
2017-12-02T03:40:25.571Z,34.97
2017-12-02T03:42:52.960Z,37.07
2017-12-02T03:45:20.470Z,44.53
2017-12-02T03:47:47.854Z,36.53
2017-12-02T03:50:15.263Z,46.10
2017-12-02T03:52:42.642Z,42.73
2017-12-02T03:55:10.051Z,47.87
2017-12-02T03:57:37.454Z,43.67
2017-12-02T04:00:04.854Z,42.83
2017-12-02T04:02:32.246Z,46.80
2017-12-02T04:04:59.652Z,49.90
2017-12-02T04:07:27.070Z,42.20
2017-12-02T04:09:54.470Z,42.50
2017-12-02T04:12:21.861Z,48.97
2017-12-02T04:14:49.611Z,62.70
2017-12-02T04:17:16.992Z,60.83
2017-12-02T04:19:44.386Z,58.23
2017-12-02T04:22:11.806Z,53.57
2017-12-02T04:24:39.205Z,61.80
2017-12-02T04:27:06.602Z,70.47
2017-12-02T04:29:34.002Z,75.63
2017-12-02T04:32:01.423Z,67.27
2017-12-02T04:34:28.815Z,79.53
2017-12-02T04:36:56.258Z,84.57
2017-12-02T04:39:23.690Z,60.70
2017-12-02T04:41:51.153Z,63.70
2017-12-02T04:44:18.608Z,57.40
2017-12-02T04:46:46.022Z,50.10
2017-12-02T04:49:13.515Z,52.43
2017-12-02T04:51:40.982Z,48.33
2017-12-02T04:54:08.442Z,52.17
2017-12-02T04:56:35.826Z,67.40
2017-12-02T04:59:03.226Z,65.53
2017-12-02T05:01:30.698Z,69.00
2017-12-02T05:03:58.099Z,58.00
2017-12-02T05:06:25.489Z,53.00
2017-12-02T05:08:52.885Z,54.57
2017-12-02T05:11:20.371Z,56.73
2017-12-02T05:13:47.822Z,54.00
2017-12-02T05:16:15.294Z,51.17
2017-12-02T05:18:42.744Z,50.93
2017-12-02T05:21:10.143Z,61.70
2017-12-02T05:23:37.554Z,57.83
2017-12-02T05:26:04.961Z,73.47
2017-12-02T05:28:32.383Z,65.00
2017-12-02T05:30:59.811Z,53.53
2017-12-02T05:33:27.212Z,53.33
2017-12-02T05:35:54.613Z,52.63
2017-12-02T05:38:22.073Z,52.00
2017-12-02T05:40:49.483Z,48.43
2017-12-02T05:43:16.874Z,48.47
2017-12-02T05:45:44.272Z,59.60
2017-12-02T05:48:11.666Z,54.27
2017-12-02T05:50:39.055Z,55.07
2017-12-02T05:53:06.573Z,46.53
2017-12-02T05:55:34.070Z,60.93
2017-12-02T05:58:01.478Z,57.07
2017-12-02T06:00:28.886Z,56.60
2017-12-02T06:02:56.339Z,48.90
2017-12-02T06:05:23.734Z,54.13
2017-12-02T06:07:51.122Z,45.60
2017-12-02T06:10:18.523Z,42.10
2017-12-02T06:12:45.938Z,41.80
2017-12-02T06:15:13.412Z,41.07
2017-12-02T06:17:40.802Z,43.77
2017-12-02T06:20:08.216Z,34.27
2017-12-02T06:22:35.631Z,37.23
2017-12-02T06:25:03.018Z,33.50
2017-12-02T06:27:30.421Z,34.80
2017-12-02T06:29:57.847Z,38.43
2017-12-02T06:32:25.270Z,36.33
2017-12-02T06:34:52.671Z,34.80
2017-12-02T06:37:20.119Z,46.60
2017-12-02T06:39:47.502Z,50.47
2017-12-02T06:42:14.917Z,38.60
2017-12-02T06:44:42.375Z,40.07
2017-12-02T06:47:09.782Z,40.63
2017-12-02T06:49:37.188Z,31.27
2017-12-02T06:52:04.586Z,35.73
2017-12-02T06:54:32.002Z,38.13
2017-12-02T06:56:59.414Z,41.20
2017-12-02T06:59:26.819Z,37.97
2017-12-02T07:01:54.214Z,35.03
2017-12-02T07:04:21.633Z,43.37
2017-12-02T07:06:49.026Z,38.73
2017-12-02T07:09:16.430Z,39.30
2017-12-02T07:11:43.818Z,38.20
2017-12-02T07:14:11.222Z,33.60
2017-12-02T07:16:38.611Z,33.67
2017-12-02T07:19:06.010Z,28.03
2017-12-02T07:21:33.398Z,27.10
2017-12-02T07:24:00.807Z,27.43
2017-12-02T07:26:28.202Z,27.90
2017-12-02T07:28:55.594Z,24.70
2017-12-02T07:31:22.989Z,23.77
2017-12-02T07:33:50.402Z,24.90
2017-12-02T07:36:17.796Z,24.80
2017-12-02T07:38:45.199Z,23.53
2017-12-02T07:41:12.586Z,25.43
2017-12-02T07:43:40.058Z,24.97
2017-12-02T07:46:07.462Z,26.40
2017-12-02T07:48:34.858Z,30.80
2017-12-02T07:51:02.279Z,25.40
2017-12-02T07:53:29.692Z,28.13
2017-12-02T07:55:57.162Z,27.93
2017-12-02T07:58:24.554Z,26.43
2017-12-02T08:00:51.951Z,33.03
2017-12-02T08:03:19.359Z,26.60
2017-12-02T08:05:46.786Z,30.00
2017-12-02T08:08:14.174Z,31.03
2017-12-02T08:10:41.675Z,29.93
2017-12-02T08:13:09.176Z,32.63
2017-12-02T08:15:36.562Z,25.20
2017-12-02T08:18:03.958Z,27.60
2017-12-02T08:20:31.376Z,27.73
2017-12-02T08:22:58.775Z,26.40
2017-12-02T08:25:26.246Z,30.83
2017-12-02T08:27:53.681Z,29.67
2017-12-02T08:30:21.122Z,33.17
2017-12-02T08:32:48.591Z,29.47
2017-12-02T08:35:15.970Z,32.50
2017-12-02T08:37:43.378Z,29.80
2017-12-02T08:40:10.847Z,27.43
2017-12-02T08:42:38.242Z,28.23
2017-12-02T08:45:05.639Z,30.23
2017-12-02T08:47:33.110Z,27.10
2017-12-02T08:50:00.525Z,27.10
2017-12-02T08:52:27.920Z,25.00
2017-12-02T08:54:55.307Z,26.03
2017-12-02T08:57:22.733Z,25.80
2017-12-02T08:59:50.126Z,25.93
2017-12-02T09:02:17.526Z,27.13
2017-12-02T09:04:44.938Z,26.43
2017-12-02T09:07:12.352Z,28.63
2017-12-02T09:09:39.747Z,32.10
2017-12-02T09:12:07.154Z,28.27
2017-12-02T09:14:34.552Z,26.07
2017-12-02T09:17:01.950Z,25.93
2017-12-02T09:19:29.343Z,30.03
2017-12-02T09:21:56.755Z,30.63
2017-12-02T09:24:24.153Z,25.33
2017-12-02T09:26:51.542Z,28.33
2017-12-02T09:29:18.937Z,18.70
2017-12-02T09:31:46.358Z,19.70
2017-12-02T09:34:13.757Z,21.90
2017-12-02T09:36:41.158Z,18.90
2017-12-02T09:39:08.558Z,23.67
2017-12-02T09:41:36.043Z,20.43
2017-12-02T09:44:03.439Z,22.20
2017-12-02T09:46:30.830Z,22.57
2017-12-02T09:48:58.311Z,23.43
2017-12-02T09:51:25.743Z,27.00
2017-12-02T09:53:53.107Z,26.07
2017-12-02T09:56:20.498Z,24.93
2017-12-02T09:58:47.935Z,27.87
2017-12-02T10:01:15.383Z,27.47
2017-12-02T10:03:42.775Z,24.27
2017-12-02T10:06:10.193Z,31.13
2017-12-02T10:08:37.646Z,28.30
2017-12-02T10:11:05.051Z,29.80
2017-12-02T10:13:32.462Z,31.73
2017-12-02T10:15:59.917Z,35.27
2017-12-02T10:18:27.307Z,31.43
2017-12-02T10:20:53.998Z,37.03
2017-12-02T10:23:21.389Z,32.50
2017-12-02T10:25:48.810Z,35.53
2017-12-02T10:28:16.194Z,33.80
2017-12-02T10:30:43.582Z,34.77
2017-12-02T10:33:10.986Z,39.60
2017-12-02T10:35:38.385Z,36.43
2017-12-02T10:38:05.769Z,37.03
2017-12-02T10:40:33.222Z,35.97
2017-12-02T10:43:00.716Z,37.90
2017-12-02T10:45:28.098Z,33.97
2017-12-02T10:47:55.510Z,31.17
2017-12-02T10:50:22.894Z,37.00
2017-12-02T10:52:50.304Z,34.50
2017-12-02T10:55:17.683Z,38.23
2017-12-02T10:57:45.079Z,41.27
2017-12-02T11:00:12.478Z,35.07
2017-12-02T11:02:39.887Z,39.97
2017-12-02T11:05:07.310Z,37.13
2017-12-02T11:07:34.723Z,37.23
2017-12-02T11:10:02.220Z,37.77
2017-12-02T11:12:29.666Z,35.03
2017-12-02T11:14:57.054Z,35.80
2017-12-02T11:17:24.455Z,31.60
2017-12-02T11:19:51.944Z,34.27
2017-12-02T11:22:19.344Z,37.20
2017-12-02T11:24:46.850Z,36.07
2017-12-02T11:27:14.255Z,34.00
2017-12-02T11:29:41.678Z,36.77
2017-12-02T11:32:09.120Z,34.30
2017-12-02T11:34:36.506Z,34.47
2017-12-02T11:37:03.897Z,30.53
2017-12-02T11:39:31.298Z,33.80
2017-12-02T11:41:58.733Z,34.03
2017-12-02T11:44:26.132Z,33.30
2017-12-02T11:46:53.551Z,34.10
2017-12-02T11:49:21.007Z,40.13
2017-12-02T11:51:48.467Z,37.60
2017-12-02T11:54:15.917Z,36.00
2017-12-02T11:56:43.307Z,39.37
2017-12-02T11:59:10.706Z,39.63
2017-12-02T12:01:38.102Z,35.60
2017-12-02T12:04:05.505Z,38.97
2017-12-02T12:06:32.894Z,38.80
2017-12-02T12:09:00.343Z,47.23
2017-12-02T12:11:27.747Z,40.30
2017-12-02T12:13:55.142Z,44.63
2017-12-02T12:16:22.533Z,36.93
2017-12-02T12:18:49.938Z,43.30
2017-12-02T12:21:17.417Z,36.53
2017-12-02T12:23:44.823Z,41.70
2017-12-02T12:26:12.227Z,38.30
2017-12-02T12:28:39.627Z,39.10
2017-12-02T12:31:07.022Z,44.37
2017-12-02T12:33:34.422Z,36.47
2017-12-02T12:36:01.820Z,40.60
2017-12-02T12:38:29.210Z,43.10
2017-12-02T12:40:56.618Z,40.60
2017-12-02T12:43:24.011Z,39.17
2017-12-02T12:45:51.424Z,41.40
2017-12-02T12:48:18.821Z,35.67
2017-12-02T12:50:46.241Z,37.60
2017-12-02T12:53:13.631Z,43.83
2017-12-02T12:55:41.035Z,39.40
2017-12-02T12:58:08.434Z,42.70
2017-12-02T13:00:35.823Z,44.00
2017-12-02T13:03:03.278Z,34.60
2017-12-02T13:05:30.678Z,40.10
2017-12-02T13:07:58.150Z,38.57
2017-12-02T13:10:25.554Z,39.70
2017-12-02T13:12:52.953Z,37.17
2017-12-02T13:15:20.345Z,34.10
2017-12-02T13:17:47.766Z,32.03
2017-12-02T13:20:15.150Z,28.10
2017-12-02T13:22:42.638Z,33.87
2017-12-02T13:25:10.034Z,28.90
2017-12-02T13:27:37.435Z,29.93
2017-12-02T13:30:04.838Z,29.70
2017-12-02T13:32:32.234Z,30.70
2017-12-02T13:34:59.617Z,27.80
2017-12-02T13:37:27.026Z,36.00
2017-12-02T13:39:55.337Z,35.47
2017-12-02T13:42:22.802Z,39.17
2017-12-02T13:44:50.199Z,41.07
2017-12-02T13:47:17.598Z,46.13
2017-12-02T13:49:45.053Z,38.30
2017-12-02T13:52:12.401Z,32.97
2017-12-02T13:54:39.790Z,36.97
2017-12-02T13:57:07.202Z,41.27
2017-12-02T13:59:34.695Z,38.17
2017-12-02T14:02:02.149Z,39.73
2017-12-02T14:04:29.598Z,39.20
2017-12-02T14:06:56.989Z,38.73
2017-12-02T14:09:24.406Z,44.33
2017-12-02T14:11:51.802Z,46.93
2017-12-02T14:14:19.196Z,46.57
2017-12-02T14:16:46.682Z,54.93
2017-12-02T14:19:14.079Z,53.10
2017-12-02T14:21:41.469Z,50.50
2017-12-02T14:24:08.875Z,45.43
2017-12-02T14:26:36.266Z,49.50
2017-12-02T14:29:03.746Z,45.80
2017-12-02T14:31:31.213Z,49.10
2017-12-02T14:33:58.616Z,50.23
2017-12-02T14:36:26.010Z,47.27
2017-12-02T14:38:53.411Z,55.07
2017-12-02T14:41:20.835Z,64.40
2017-12-02T14:43:48.292Z,63.07
2017-12-02T14:46:15.744Z,61.00
2017-12-02T14:48:43.134Z,64.67
2017-12-02T14:51:10.533Z,48.60
2017-12-02T14:53:37.918Z,44.03
2017-12-02T14:56:05.374Z,44.47
2017-12-02T14:58:32.762Z,46.90
2017-12-02T15:01:00.182Z,60.47
2017-12-02T15:03:27.578Z,45.33
2017-12-02T15:05:55.089Z,37.17
2017-12-02T15:08:22.506Z,42.40
2017-12-02T15:10:49.898Z,43.73
2017-12-02T15:13:17.361Z,52.50
2017-12-02T15:15:44.772Z,49.47
2017-12-02T15:18:12.183Z,46.90
2017-12-02T15:20:39.630Z,47.40
2017-12-02T15:23:06.984Z,45.77
2017-12-02T15:25:34.421Z,46.90
2017-12-02T15:28:01.822Z,49.83
2017-12-02T15:30:29.245Z,42.70
2017-12-02T15:32:56.634Z,44.03
2017-12-02T15:35:24.062Z,45.07
2017-12-02T15:37:51.458Z,53.60
2017-12-02T15:40:18.845Z,40.27
2017-12-02T15:42:46.314Z,43.93
2017-12-02T15:45:13.781Z,45.63
2017-12-02T15:47:41.239Z,42.40
2017-12-02T15:50:08.694Z,41.30
2017-12-02T15:52:36.102Z,45.90
2017-12-02T15:55:03.502Z,43.97
2017-12-02T15:57:30.958Z,46.77
2017-12-02T15:59:58.421Z,36.93
2017-12-02T16:02:25.876Z,48.37
2017-12-02T16:04:53.325Z,42.77
2017-12-02T16:07:20.714Z,42.67
2017-12-02T16:09:48.115Z,36.20
2017-12-02T16:12:15.507Z,33.07
2017-12-02T16:14:42.889Z,39.93
2017-12-02T16:17:10.295Z,40.43
2017-12-02T16:19:37.766Z,32.80
2017-12-02T16:22:05.162Z,36.33
2017-12-02T16:24:32.568Z,33.87
2017-12-02T16:26:59.949Z,36.90
2017-12-02T16:29:27.354Z,41.93
2017-12-02T16:31:54.748Z,46.00
2017-12-02T16:34:22.202Z,40.83
2017-12-02T16:36:49.600Z,40.17
2017-12-02T16:39:17.037Z,41.50
2017-12-02T16:41:44.437Z,41.93
2017-12-02T16:44:11.850Z,42.37
2017-12-02T16:46:39.249Z,46.30
2017-12-02T16:49:06.630Z,45.73
2017-12-02T16:51:34.090Z,42.37
2017-12-02T16:54:01.494Z,41.57
2017-12-02T16:56:28.878Z,40.03
2017-12-02T16:58:56.294Z,33.50
2017-12-02T17:01:23.690Z,42.53
2017-12-02T17:03:51.086Z,47.80
2017-12-02T17:06:18.518Z,41.50
2017-12-02T17:08:45.906Z,42.13
2017-12-02T17:11:13.331Z,45.40
2017-12-02T17:13:40.778Z,45.60
2017-12-02T17:16:08.174Z,39.60
2017-12-02T17:18:35.565Z,41.17
2017-12-02T17:21:03.050Z,45.73
2017-12-02T17:23:30.442Z,40.57
2017-12-02T17:25:57.854Z,40.30
2017-12-02T17:28:25.318Z,39.90
2017-12-02T17:30:52.774Z,45.55
2017-12-02T17:33:20.167Z,44.37
2017-12-02T17:35:47.591Z,36.63
2017-12-02T17:38:14.970Z,41.83
2017-12-02T17:40:42.374Z,35.30
2017-12-02T17:43:09.842Z,43.07
2017-12-02T17:45:37.306Z,37.73
2017-12-02T17:48:04.758Z,47.47
2017-12-02T17:50:32.222Z,40.57
2017-12-02T17:52:59.633Z,38.63
2017-12-02T17:55:27.136Z,41.27
2017-12-02T17:57:54.535Z,37.27
2017-12-02T18:00:21.946Z,36.50
2017-12-02T18:02:49.395Z,35.50
2017-12-02T18:05:16.787Z,32.97
2017-12-02T18:07:44.182Z,34.07
2017-12-02T18:10:11.594Z,33.30
2017-12-02T18:12:38.989Z,33.77
2017-12-02T18:15:06.474Z,34.93
2017-12-02T18:17:33.890Z,33.43
2017-12-02T18:20:01.378Z,35.40
2017-12-02T18:22:28.786Z,32.10
2017-12-02T18:24:56.173Z,36.73
2017-12-02T18:27:23.571Z,36.37
2017-12-02T18:29:51.010Z,35.07
2017-12-02T18:32:18.466Z,36.67
2017-12-02T18:34:45.862Z,30.27
2017-12-02T18:37:13.254Z,35.40
2017-12-02T18:39:40.730Z,39.97
2017-12-02T18:42:08.118Z,33.80
2017-12-02T18:44:35.544Z,34.97
2017-12-02T18:47:02.930Z,37.67
2017-12-02T18:49:30.313Z,35.30
2017-12-02T18:51:57.717Z,37.80
2017-12-02T18:54:25.111Z,38.60
2017-12-02T18:56:52.498Z,50.63
2017-12-02T18:59:19.970Z,61.33
2017-12-02T19:01:47.384Z,59.03
2017-12-02T19:04:14.783Z,41.23
2017-12-02T19:06:42.174Z,37.57
2017-12-02T19:09:09.570Z,40.20
2017-12-02T19:11:36.957Z,41.30
2017-12-02T19:14:04.404Z,42.80
2017-12-02T19:16:31.810Z,58.00
2017-12-02T19:18:59.209Z,36.57
2017-12-02T19:21:26.682Z,32.27
2017-12-02T19:23:54.109Z,38.10
2017-12-02T19:26:21.505Z,29.43
2017-12-02T19:28:48.923Z,38.73
2017-12-02T19:31:16.306Z,35.83
2017-12-02T19:33:43.748Z,35.40
2017-12-02T19:36:11.217Z,35.63
2017-12-02T19:38:38.606Z,31.47
2017-12-02T19:41:06.013Z,34.00
2017-12-02T19:43:33.402Z,29.97
2017-12-02T19:46:00.843Z,37.70
2017-12-02T19:48:28.230Z,35.57
2017-12-02T19:50:55.639Z,35.10
2017-12-02T19:53:23.026Z,31.20
2017-12-02T19:55:50.438Z,34.90
2017-12-02T19:58:17.842Z,34.47
2017-12-02T20:00:45.235Z,30.87
2017-12-02T20:03:12.642Z,28.63
2017-12-02T20:05:40.078Z,29.40
2017-12-02T20:08:07.539Z,30.17
2017-12-02T20:10:34.948Z,33.67
2017-12-02T20:13:02.334Z,33.67
2017-12-02T20:15:29.802Z,34.00
2017-12-02T20:17:57.204Z,34.10
2017-12-02T20:20:24.611Z,31.30
2017-12-02T20:22:52.083Z,39.20
2017-12-02T20:28:10.083Z,41.60
2017-12-02T20:30:37.478Z,34.20
2017-12-02T20:33:04.862Z,36.50
2017-12-02T20:35:32.282Z,34.13
2017-12-02T20:37:59.672Z,35.63
2017-12-02T20:40:27.062Z,35.30
2017-12-02T20:42:54.449Z,34.73
2017-12-02T20:45:21.903Z,37.33
2017-12-02T20:47:49.304Z,33.50
2017-12-02T20:50:16.780Z,39.27
2017-12-02T20:52:44.161Z,29.40
2017-12-02T20:55:11.579Z,32.00
2017-12-02T20:57:38.982Z,35.63
2017-12-02T21:00:06.382Z,34.07
2017-12-02T21:02:33.775Z,30.97
2017-12-02T21:05:01.168Z,33.20
2017-12-02T21:07:28.670Z,45.20
2017-12-02T21:09:56.062Z,42.90
2017-12-02T21:12:23.481Z,41.00
2017-12-02T21:14:50.865Z,35.43
2017-12-02T21:17:18.262Z,44.73
2017-12-02T21:19:45.651Z,39.13
2017-12-02T21:22:13.062Z,35.07
2017-12-02T21:24:40.558Z,42.43
2017-12-02T21:27:07.953Z,35.10
2017-12-02T21:29:35.337Z,35.90
2017-12-02T21:32:02.736Z,39.80
2017-12-02T21:34:30.127Z,27.07
2017-12-02T21:36:57.644Z,30.50
2017-12-02T21:39:25.033Z,37.10
2017-12-02T21:41:52.429Z,35.30
2017-12-02T21:44:19.826Z,32.93
2017-12-02T21:46:47.325Z,37.83
2017-12-02T21:49:14.772Z,37.93
2017-12-02T21:51:42.230Z,34.50
2017-12-02T21:54:09.626Z,36.53
2017-12-02T21:56:37.011Z,33.10
2017-12-02T21:59:04.407Z,36.07
2017-12-02T22:01:31.822Z,37.50
2017-12-02T22:03:59.226Z,35.43
2017-12-02T22:06:26.627Z,42.63
2017-12-02T22:08:54.109Z,36.43
2017-12-02T22:11:21.502Z,36.17
2017-12-02T22:13:48.894Z,35.30
2017-12-02T22:16:16.294Z,42.47
2017-12-02T22:18:43.686Z,39.10
2017-12-02T22:21:11.082Z,38.90
2017-12-02T22:23:38.475Z,46.67
2017-12-02T22:26:05.866Z,46.37
2017-12-02T22:28:33.253Z,44.73
2017-12-02T22:31:00.649Z,40.30
2017-12-02T22:33:28.042Z,51.80
2017-12-02T22:35:55.517Z,47.07
2017-12-02T22:38:22.980Z,44.33
2017-12-02T22:40:50.374Z,42.33
2017-12-02T22:43:17.771Z,40.40
2017-12-02T22:45:45.170Z,39.93
2017-12-02T22:48:12.571Z,46.43
2017-12-02T22:50:40.055Z,45.17
2017-12-02T22:53:07.502Z,42.17
2017-12-02T22:55:34.895Z,44.17
2017-12-02T22:58:02.327Z,39.13
2017-12-02T23:00:29.721Z,47.20
2017-12-02T23:02:57.110Z,45.00
2017-12-02T23:08:14.672Z,50.00
2017-12-02T23:10:42.084Z,61.10
2017-12-02T23:13:09.513Z,52.00
2017-12-02T23:15:36.918Z,58.00
2017-12-02T23:18:04.318Z,64.57
2017-12-02T23:20:31.718Z,62.80
2017-12-02T23:22:59.125Z,64.60
2017-12-02T23:25:26.600Z,72.00
2017-12-02T23:27:53.985Z,65.13
2017-12-02T23:30:21.566Z,74.40
2017-12-02T23:32:48.979Z,73.43
2017-12-02T23:35:16.487Z,88.03
2017-12-02T23:37:44.018Z,71.73
2017-12-02T23:40:11.644Z,77.63
2017-12-02T23:42:39.253Z,74.47
2017-12-02T23:45:06.654Z,74.93
2017-12-02T23:47:34.056Z,72.97
2017-12-02T23:50:01.460Z,76.13
2017-12-02T23:52:28.919Z,80.47
2017-12-02T23:54:56.305Z,84.00
2017-12-02T23:57:23.726Z,82.57
2017-12-02T23:59:51.118Z,81.87
